createdAt,value
2018-03-27T00:01:33.042Z,36.00
2018-03-27T00:04:01.362Z,36.03
2018-03-27T00:06:29.707Z,36.75
2018-03-27T00:08:58.035Z,39.67
2018-03-27T00:11:26.370Z,32.53
2018-03-27T00:13:54.694Z,35.95
2018-03-27T00:16:23.040Z,39.30
2018-03-27T00:18:51.357Z,33.33
2018-03-27T00:21:19.742Z,32.85
2018-03-27T00:23:48.404Z,34.72
2018-03-27T00:26:16.735Z,41.95
2018-03-27T00:28:56.687Z,38.90
2018-03-27T00:31:42.670Z,33.53
2018-03-27T00:34:28.917Z,39.65
2018-03-27T00:37:15.031Z,38.42
2018-03-27T00:40:01.183Z,39.78
2018-03-27T00:42:42.890Z,35.83
2018-03-27T00:45:10.954Z,33.55
2018-03-27T00:47:38.990Z,35.50
2018-03-27T00:50:07.054Z,35.60
2018-03-27T00:52:35.374Z,36.35
2018-03-27T00:55:03.695Z,36.67
2018-03-27T00:57:32.036Z,38.03
2018-03-27T01:00:00.346Z,37.15
2018-03-27T01:02:28.682Z,42.08
2018-03-27T01:04:57.002Z,46.65
2018-03-27T01:07:25.346Z,38.80
2018-03-27T01:09:53.666Z,41.03
2018-03-27T01:12:22.006Z,43.40
2018-03-27T01:14:50.330Z,44.58
2018-03-27T01:17:18.666Z,45.17
2018-03-27T01:19:46.995Z,40.90
2018-03-27T01:22:15.337Z,42.88
2018-03-27T01:24:43.657Z,39.40
2018-03-27T01:27:11.993Z,37.35
2018-03-27T01:29:40.309Z,37.38
2018-03-27T01:32:08.649Z,42.10
2018-03-27T01:34:36.970Z,40.83
2018-03-27T01:37:05.306Z,35.47
2018-03-27T01:39:33.621Z,28.98
2018-03-27T01:42:01.966Z,32.75
2018-03-27T01:44:30.287Z,29.10
2018-03-27T01:46:58.634Z,29.40
2018-03-27T01:49:26.949Z,34.53
2018-03-27T01:51:55.290Z,29.25
2018-03-27T01:54:23.610Z,34.22
2018-03-27T01:56:52.001Z,31.80
2018-03-27T01:59:20.321Z,27.85
2018-03-27T02:01:48.663Z,27.23
2018-03-27T02:04:16.986Z,32.90
2018-03-27T02:06:45.330Z,26.58
2018-03-27T02:09:13.657Z,29.30
2018-03-27T02:11:47.714Z,32.38
2018-03-27T02:14:21.702Z,29.20
2018-03-27T02:16:55.514Z,31.02
2018-03-27T02:19:29.409Z,32.60
2018-03-27T02:21:57.190Z,30.35
2018-03-27T02:24:26.291Z,33.95
2018-03-27T02:26:54.635Z,30.88
2018-03-27T02:29:22.954Z,30.20
2018-03-27T02:31:51.298Z,30.02
2018-03-27T02:34:19.610Z,30.45
2018-03-27T02:36:47.958Z,26.05
2018-03-27T02:39:16.281Z,28.38
2018-03-27T02:41:44.622Z,25.75
2018-03-27T02:44:12.939Z,23.67
2018-03-27T02:46:41.282Z,26.00
2018-03-27T02:49:09.607Z,25.77
2018-03-27T02:51:37.946Z,26.73
2018-03-27T02:54:06.266Z,23.90
2018-03-27T02:56:34.602Z,25.33
2018-03-27T02:59:02.924Z,27.58
2018-03-27T03:01:31.259Z,26.52
2018-03-27T03:03:59.584Z,23.65
2018-03-27T03:06:27.928Z,23.60
2018-03-27T03:08:56.246Z,24.05
2018-03-27T03:11:24.606Z,27.95
2018-03-27T03:13:52.934Z,27.20
2018-03-27T03:16:21.253Z,27.37
2018-03-27T03:18:49.597Z,32.53
2018-03-27T03:21:17.918Z,28.87
2018-03-27T03:23:46.273Z,27.80
2018-03-27T03:26:14.590Z,34.67
2018-03-27T03:28:42.931Z,27.55
2018-03-27T03:31:11.258Z,31.30
2018-03-27T03:33:39.594Z,30.48
2018-03-27T03:36:07.922Z,28.73
2018-03-27T03:38:36.262Z,27.83
2018-03-27T03:41:04.586Z,26.80
2018-03-27T03:43:32.926Z,25.75
2018-03-27T03:46:01.246Z,26.77
2018-03-27T03:48:29.638Z,29.95
2018-03-27T03:50:57.962Z,28.10
2018-03-27T03:53:26.305Z,27.45
2018-03-27T03:55:54.626Z,28.45
2018-03-27T03:58:22.957Z,27.75
2018-03-27T04:00:51.278Z,25.98
2018-03-27T04:03:19.619Z,37.15
2018-03-27T04:05:47.937Z,32.95
2018-03-27T04:08:16.287Z,29.17
2018-03-27T04:10:44.604Z,31.37
2018-03-27T04:13:12.945Z,29.87
2018-03-27T04:15:41.258Z,31.80
2018-03-27T04:18:09.602Z,31.60
2018-03-27T04:20:37.922Z,26.95
2018-03-27T04:23:06.262Z,37.83
2018-03-27T04:25:34.586Z,28.00
2018-03-27T04:28:02.921Z,26.98
2018-03-27T04:30:31.237Z,31.48
2018-03-27T04:32:59.586Z,32.20
2018-03-27T04:35:27.903Z,28.08
2018-03-27T04:37:56.243Z,26.77
2018-03-27T04:40:24.575Z,31.17
2018-03-27T04:42:52.924Z,25.65
2018-03-27T04:45:21.244Z,33.67
2018-03-27T04:47:49.607Z,29.40
2018-03-27T04:50:17.932Z,28.73
2018-03-27T04:52:46.270Z,33.63
2018-03-27T04:55:14.590Z,34.33
2018-03-27T04:57:42.937Z,36.53
2018-03-27T05:00:11.259Z,37.38
2018-03-27T05:02:39.790Z,35.97
2018-03-27T05:05:08.142Z,32.80
2018-03-27T05:07:36.486Z,33.30
2018-03-27T05:10:04.811Z,31.63
2018-03-27T05:12:33.154Z,38.87
2018-03-27T05:15:01.474Z,33.60
2018-03-27T05:17:29.818Z,43.07
2018-03-27T05:19:58.147Z,39.57
2018-03-27T05:22:27.122Z,35.03
2018-03-27T05:24:55.462Z,35.45
2018-03-27T05:27:23.809Z,38.53
2018-03-27T05:29:52.186Z,35.50
2018-03-27T05:32:20.511Z,35.07
2018-03-27T05:34:48.855Z,37.53
2018-03-27T05:37:17.177Z,41.13
2018-03-27T05:39:45.518Z,41.40
2018-03-27T05:42:13.988Z,46.63
2018-03-27T05:44:42.363Z,49.80
2018-03-27T05:47:10.686Z,49.88
2018-03-27T05:49:39.038Z,43.80
2018-03-27T05:52:07.686Z,43.10
2018-03-27T05:54:36.055Z,36.22
2018-03-27T05:57:04.473Z,50.00
2018-03-27T05:59:32.807Z,43.90
2018-03-27T06:02:01.226Z,47.75
2018-03-27T06:04:30.558Z,46.85
2018-03-27T06:06:59.381Z,51.80
2018-03-27T06:09:27.722Z,49.17
2018-03-27T06:11:56.042Z,51.90
2018-03-27T06:14:24.390Z,45.63
2018-03-27T06:16:52.711Z,48.17
2018-03-27T06:19:21.060Z,48.33
2018-03-27T06:21:49.377Z,48.60
2018-03-27T06:24:17.726Z,51.50
2018-03-27T06:26:49.232Z,51.03
2018-03-27T06:29:17.574Z,55.90
2018-03-27T06:31:46.333Z,42.37
2018-03-27T06:34:14.671Z,51.93
2018-03-27T06:36:43.915Z,56.20
2018-03-27T06:39:13.110Z,52.40
2018-03-27T06:41:41.438Z,55.42
2018-03-27T06:44:09.790Z,52.63
2018-03-27T06:46:38.111Z,51.03
2018-03-27T06:49:06.458Z,55.75
2018-03-27T06:51:34.790Z,61.80
2018-03-27T06:54:03.139Z,58.70
2018-03-27T06:56:31.471Z,59.83
2018-03-27T06:58:59.855Z,54.33
2018-03-27T07:01:28.145Z,57.10
2018-03-27T07:03:56.497Z,48.45
2018-03-27T07:06:24.858Z,56.17
2018-03-27T07:11:26.925Z,56.97
2018-03-27T07:13:55.284Z,58.90
2018-03-27T07:16:23.620Z,51.80
2018-03-27T07:18:51.999Z,53.55
2018-03-27T07:21:20.296Z,51.07
2018-03-27T07:23:48.644Z,47.93
2018-03-27T07:26:16.968Z,59.20
2018-03-27T07:28:45.286Z,46.77
2018-03-27T07:31:13.635Z,52.70
2018-03-27T07:33:41.954Z,58.53
2018-03-27T07:36:10.749Z,57.67
2018-03-27T07:38:39.071Z,51.83
2018-03-27T07:41:07.434Z,50.95
2018-03-27T07:43:35.758Z,48.40
2018-03-27T07:46:04.118Z,54.37
2018-03-27T07:48:32.434Z,50.40
2018-03-27T07:51:00.778Z,50.30
2018-03-27T07:53:29.106Z,52.83
2018-03-27T07:55:57.450Z,45.93
2018-03-27T07:58:25.782Z,50.67
2018-03-27T08:00:54.130Z,38.92
2018-03-27T08:03:22.460Z,46.57
2018-03-27T08:05:50.819Z,34.63
2018-03-27T08:08:19.206Z,48.40
2018-03-27T08:10:47.554Z,44.47
2018-03-27T08:13:15.878Z,36.40
2018-03-27T08:15:44.238Z,40.92
2018-03-27T08:18:12.554Z,38.30
2018-03-27T08:20:40.902Z,38.83
2018-03-27T08:23:09.247Z,40.80
2018-03-27T08:25:37.590Z,47.10
2018-03-27T08:28:05.913Z,36.97
2018-03-27T08:30:34.262Z,40.20
2018-03-27T08:33:02.582Z,37.87
2018-03-27T08:35:30.934Z,41.03
2018-03-27T08:37:59.263Z,33.63
2018-03-27T08:40:27.614Z,42.00
2018-03-27T08:42:55.938Z,39.70
2018-03-27T08:45:24.284Z,41.88
2018-03-27T08:47:52.606Z,41.75
2018-03-27T08:50:21.394Z,37.65
2018-03-27T08:52:49.722Z,34.20
2018-03-27T08:55:18.072Z,39.90
2018-03-27T08:57:46.401Z,40.40
2018-03-27T09:00:14.742Z,45.70
2018-03-27T09:02:43.074Z,39.17
2018-03-27T09:05:11.417Z,42.50
2018-03-27T09:07:39.973Z,40.77
2018-03-27T09:10:08.423Z,42.57
2018-03-27T09:12:36.743Z,41.20
2018-03-27T09:15:05.085Z,40.67
2018-03-27T09:17:33.409Z,34.50
2018-03-27T09:20:01.755Z,35.57
2018-03-27T09:22:30.303Z,28.20
2018-03-27T09:24:58.746Z,28.55
2018-03-27T09:27:27.072Z,29.67
2018-03-27T09:29:55.913Z,24.73
2018-03-27T09:32:24.367Z,24.50
2018-03-27T09:34:52.813Z,29.23
2018-03-27T09:37:21.254Z,28.23
2018-03-27T09:39:49.586Z,33.20
2018-03-27T09:42:17.970Z,36.22
2018-03-27T09:44:46.294Z,33.50
2018-03-27T09:47:14.738Z,29.40
2018-03-27T09:49:43.435Z,37.07
2018-03-27T09:52:11.782Z,26.67
2018-03-27T09:54:40.106Z,34.63
2018-03-27T09:57:08.488Z,30.00
2018-03-27T09:59:36.825Z,29.90
2018-03-27T10:02:05.206Z,29.65
2018-03-27T10:04:33.514Z,29.87
2018-03-27T10:07:01.866Z,33.70
2018-03-27T10:09:30.363Z,32.20
2018-03-27T10:11:58.719Z,25.40
2018-03-27T10:14:27.049Z,24.33
2018-03-27T10:16:55.402Z,26.90
2018-03-27T10:19:23.751Z,20.73
2018-03-27T10:21:52.110Z,24.07
2018-03-27T10:24:20.432Z,22.73
2018-03-27T10:26:48.862Z,20.33
2018-03-27T10:29:17.187Z,18.40
2018-03-27T10:31:45.538Z,17.67
2018-03-27T10:34:13.866Z,18.30
2018-03-27T10:36:42.215Z,18.80
2018-03-27T10:39:10.547Z,22.07
2018-03-27T10:41:38.901Z,16.75
2018-03-27T10:44:07.230Z,18.80
2018-03-27T10:46:37.402Z,22.25
2018-03-27T10:49:05.945Z,19.23
2018-03-27T10:51:34.355Z,17.80
2018-03-27T10:54:02.696Z,21.30
2018-03-27T10:56:31.039Z,16.62
2018-03-27T10:58:59.370Z,23.10
2018-03-27T11:01:27.722Z,40.03
2018-03-27T11:03:56.061Z,18.23
2018-03-27T11:06:24.426Z,16.80
2018-03-27T11:08:52.755Z,17.37
2018-03-27T11:11:21.151Z,17.07
2018-03-27T11:13:49.496Z,16.97
2018-03-27T11:16:18.746Z,19.70
2018-03-27T11:18:47.097Z,17.37
2018-03-27T11:21:15.446Z,17.20
2018-03-27T11:23:43.769Z,17.97
2018-03-27T11:26:12.181Z,20.23
2018-03-27T11:28:40.512Z,15.63
2018-03-27T11:31:08.895Z,18.30
2018-03-27T11:33:37.241Z,19.03
2018-03-27T11:36:05.602Z,16.30
2018-03-27T11:38:34.062Z,15.85
2018-03-27T11:41:02.443Z,15.80
2018-03-27T11:43:30.857Z,17.17
2018-03-27T11:45:59.368Z,14.80
2018-03-27T11:48:27.714Z,18.10
2018-03-27T11:50:56.100Z,20.10
2018-03-27T11:53:24.442Z,17.20
2018-03-27T11:55:52.837Z,16.90
2018-03-27T11:58:21.221Z,21.15
2018-03-27T12:03:48.534Z,16.58
2018-03-27T12:06:16.970Z,17.53
2018-03-27T12:08:45.318Z,18.50
2018-03-27T12:11:13.663Z,15.70
2018-03-27T12:13:42.024Z,15.80
2018-03-27T12:16:10.841Z,22.30
2018-03-27T12:18:39.213Z,20.52
2018-03-27T12:21:07.636Z,23.00
2018-03-27T12:23:36.027Z,25.70
2018-03-27T12:26:04.515Z,28.40
2018-03-27T12:28:32.858Z,18.00
2018-03-27T12:31:01.199Z,19.60
2018-03-27T12:33:29.601Z,20.13
2018-03-27T12:35:57.921Z,33.85
2018-03-27T12:38:26.323Z,25.60
2018-03-27T12:40:54.658Z,25.05
2018-03-27T12:43:23.015Z,28.03
2018-03-27T12:45:52.226Z,23.00
2018-03-27T12:48:20.587Z,31.13
2018-03-27T12:50:48.960Z,23.80
2018-03-27T12:53:17.342Z,30.17
2018-03-27T12:55:45.646Z,25.70
2018-03-27T12:58:14.001Z,29.95
2018-03-27T13:00:42.333Z,28.57
2018-03-27T13:03:10.741Z,27.50
2018-03-27T13:05:39.093Z,33.97
2018-03-27T13:08:07.437Z,28.77
2018-03-27T13:10:35.779Z,29.50
2018-03-27T13:13:04.134Z,29.10
2018-03-27T13:15:32.466Z,29.05
2018-03-27T13:18:00.826Z,30.73
2018-03-27T13:20:29.158Z,25.97
2018-03-27T13:22:57.524Z,28.83
2018-03-27T13:25:25.869Z,30.80
2018-03-27T13:27:54.215Z,33.63
2018-03-27T13:30:22.567Z,35.43
2018-03-27T13:32:50.934Z,31.73
2018-03-27T13:35:19.266Z,30.80
2018-03-27T13:37:47.631Z,27.13
2018-03-27T13:40:15.961Z,31.60
2018-03-27T13:42:44.310Z,28.40
2018-03-27T13:45:13.697Z,35.25
2018-03-27T13:47:42.043Z,30.60
2018-03-27T13:50:10.379Z,29.63
2018-03-27T13:52:38.735Z,34.47
2018-03-27T13:55:07.067Z,32.30
2018-03-27T13:57:35.425Z,36.37
2018-03-27T14:00:03.768Z,33.13
2018-03-27T14:02:32.148Z,30.90
2018-03-27T14:05:00.466Z,42.03
2018-03-27T14:07:28.803Z,40.42
2018-03-27T14:09:57.157Z,40.47
2018-03-27T14:12:25.500Z,31.58
2018-03-27T14:14:53.849Z,39.87
2018-03-27T14:17:22.203Z,33.33
2018-03-27T14:20:08.476Z,38.37
2018-03-27T14:22:38.960Z,44.27
2018-03-27T14:25:07.378Z,36.45
2018-03-27T14:27:35.756Z,37.00
2018-03-27T14:30:04.147Z,38.80
2018-03-27T14:32:32.532Z,47.13
2018-03-27T14:35:01.062Z,40.13
2018-03-27T14:37:29.511Z,39.23
2018-03-27T14:39:57.929Z,36.97
2018-03-27T14:42:26.322Z,35.97
2018-03-27T14:44:54.721Z,38.22
2018-03-27T14:47:23.323Z,47.57
2018-03-27T14:49:51.711Z,39.53
2018-03-27T14:52:20.104Z,36.13
2018-03-27T14:54:48.645Z,32.57
2018-03-27T14:57:16.968Z,34.13
2018-03-27T14:59:45.415Z,38.00
2018-03-27T15:02:13.784Z,33.20
2018-03-27T15:04:42.187Z,38.27
2018-03-27T15:07:10.521Z,33.47
2018-03-27T15:09:38.929Z,41.03
2018-03-27T15:12:07.342Z,39.17
2018-03-27T15:14:35.678Z,34.63
2018-03-27T15:17:04.019Z,32.33
2018-03-27T15:19:32.422Z,32.97
2018-03-27T15:22:00.775Z,30.40
2018-03-27T15:24:29.134Z,34.75
2018-03-27T15:26:57.481Z,31.77
2018-03-27T15:29:25.875Z,34.95
2018-03-27T15:31:54.206Z,32.80
2018-03-27T15:34:23.306Z,30.33
2018-03-27T15:36:51.637Z,34.80
2018-03-27T15:39:20.054Z,31.73
2018-03-27T15:41:48.394Z,32.37
2018-03-27T15:44:16.741Z,35.37
2018-03-27T15:46:46.062Z,35.05
2018-03-27T15:49:14.458Z,30.60
2018-03-27T15:51:42.854Z,35.93
2018-03-27T15:54:11.199Z,30.30
2018-03-27T15:56:39.537Z,36.53
2018-03-27T15:59:08.533Z,58.43
2018-03-27T16:01:36.882Z,154.87
2018-03-27T16:04:05.346Z,120.65
2018-03-27T16:06:33.786Z,106.20
2018-03-27T16:09:02.158Z,117.47
2018-03-27T16:11:30.499Z,101.65
2018-03-27T16:13:58.869Z,69.17
2018-03-27T16:16:28.180Z,42.22
2018-03-27T16:18:56.543Z,41.87
2018-03-27T16:21:24.878Z,39.90
2018-03-27T16:23:53.250Z,39.13
2018-03-27T16:26:21.584Z,40.90
2018-03-27T16:28:49.953Z,37.88
2018-03-27T16:31:18.330Z,48.95
2018-03-27T16:33:46.661Z,39.30
2018-03-27T16:36:15.031Z,37.28
2018-03-27T16:38:43.365Z,34.87
2018-03-27T16:41:11.730Z,34.10
2018-03-27T16:43:40.071Z,36.70
2018-03-27T16:46:08.432Z,32.77
2018-03-27T16:48:36.763Z,35.17
2018-03-27T16:51:05.118Z,34.67
2018-03-27T16:53:33.453Z,34.83
2018-03-27T16:56:01.805Z,33.97
2018-03-27T16:58:30.142Z,36.90
2018-03-27T17:00:58.510Z,38.23
2018-03-27T17:03:27.753Z,31.93
2018-03-27T17:05:56.266Z,28.67
2018-03-27T17:08:24.610Z,35.83
2018-03-27T17:10:53.007Z,33.50
2018-03-27T17:13:22.482Z,39.57
2018-03-27T17:15:50.854Z,73.13
2018-03-27T17:18:19.226Z,44.17
2018-03-27T17:20:47.583Z,45.97
2018-03-27T17:23:15.915Z,42.28
2018-03-27T17:25:44.274Z,58.03
2018-03-27T17:28:12.606Z,75.95
2018-03-27T17:30:40.966Z,68.80
2018-03-27T17:33:09.346Z,58.40
2018-03-27T17:35:37.810Z,37.47
2018-03-27T17:38:06.148Z,40.83
2018-03-27T17:40:34.692Z,46.83
2018-03-27T17:43:03.022Z,31.67
2018-03-27T17:45:31.445Z,39.93
2018-03-27T17:47:59.762Z,35.45
2018-03-27T17:50:28.119Z,38.88
2018-03-27T17:52:56.450Z,38.63
2018-03-27T17:55:24.802Z,33.47
2018-03-27T17:57:53.139Z,37.47
2018-03-27T18:00:21.492Z,30.97
2018-03-27T18:02:49.831Z,35.45
2018-03-27T18:05:18.169Z,29.23
2018-03-27T18:07:46.502Z,36.53
2018-03-27T18:10:14.854Z,35.33
2018-03-27T18:12:43.197Z,35.33
2018-03-27T18:15:11.698Z,35.00
2018-03-27T18:17:40.040Z,38.77
2018-03-27T18:20:08.385Z,38.57
2018-03-27T18:22:36.723Z,31.17
2018-03-27T18:25:05.096Z,32.55
2018-03-27T18:27:33.413Z,34.55
2018-03-27T18:30:01.746Z,39.60
2018-03-27T18:32:30.934Z,39.75
2018-03-27T18:34:59.258Z,42.90
2018-03-27T18:37:27.614Z,33.10
2018-03-27T18:39:55.942Z,32.38
2018-03-27T18:42:24.363Z,37.50
2018-03-27T18:44:53.456Z,33.03
2018-03-27T18:47:21.944Z,34.27
2018-03-27T18:49:50.292Z,40.97
2018-03-27T18:52:18.642Z,36.60
2018-03-27T18:54:46.978Z,37.07
2018-03-27T18:57:15.335Z,35.90
2018-03-27T18:59:43.658Z,33.28
2018-03-27T19:02:12.018Z,35.20
2018-03-27T19:04:40.357Z,35.15
2018-03-27T19:07:08.706Z,38.97
2018-03-27T19:09:37.144Z,34.77
2018-03-27T19:12:05.510Z,33.63
2018-03-27T19:14:35.661Z,39.40
2018-03-27T19:17:04.014Z,33.10
2018-03-27T19:19:33.194Z,34.37
2018-03-27T19:22:01.596Z,31.95
2018-03-27T19:24:29.939Z,36.50
2018-03-27T19:26:58.342Z,42.33
2018-03-27T19:29:26.678Z,38.33
2018-03-27T19:31:55.034Z,46.60
2018-03-27T19:34:23.370Z,39.10
2018-03-27T19:36:51.714Z,44.30
2018-03-27T19:39:20.042Z,36.85
2018-03-27T19:41:48.393Z,38.83
2018-03-27T19:44:16.731Z,47.58
2018-03-27T19:46:45.093Z,41.73
2018-03-27T19:49:31.134Z,39.87
2018-03-27T19:52:02.314Z,46.60
2018-03-27T19:54:30.649Z,44.00
2018-03-27T19:56:59.001Z,43.30
2018-03-27T19:59:27.371Z,46.63
2018-03-27T20:01:55.818Z,41.80
2018-03-27T20:04:24.866Z,38.33
2018-03-27T20:06:53.206Z,40.33
2018-03-27T20:09:21.534Z,44.37
2018-03-27T20:11:49.886Z,41.63
2018-03-27T20:14:18.239Z,41.00
2018-03-27T20:16:46.610Z,42.88
2018-03-27T20:19:14.963Z,46.28
2018-03-27T20:21:43.520Z,45.67
2018-03-27T20:24:12.382Z,46.85
2018-03-27T20:26:40.745Z,41.87
2018-03-27T20:29:09.066Z,45.23
2018-03-27T20:31:37.413Z,48.23
2018-03-27T20:34:05.742Z,38.07
2018-03-27T20:36:34.093Z,45.20
2018-03-27T20:39:02.421Z,49.57
2018-03-27T20:41:30.775Z,50.77
2018-03-27T20:44:00.122Z,43.90
2018-03-27T20:46:28.470Z,46.90
2018-03-27T20:48:56.809Z,49.03
2018-03-27T20:51:25.154Z,50.33
2018-03-27T20:53:53.485Z,47.33
2018-03-27T20:56:21.819Z,48.80
2018-03-27T20:58:50.170Z,66.10
2018-03-27T21:01:18.493Z,55.57
2018-03-27T21:03:46.963Z,71.37
2018-03-27T21:06:15.283Z,89.80
2018-03-27T21:08:43.630Z,57.63
2018-03-27T21:11:11.960Z,50.80
2018-03-27T21:13:40.306Z,53.47
2018-03-27T21:16:08.630Z,57.33
2018-03-27T21:18:36.970Z,59.90
2018-03-27T21:21:05.312Z,58.70
2018-03-27T21:23:33.647Z,63.93
2018-03-27T21:26:01.963Z,70.87
2018-03-27T21:28:30.306Z,69.80
2018-03-27T21:30:58.631Z,60.15
2018-03-27T21:33:26.985Z,62.27
2018-03-27T21:35:55.304Z,60.90
2018-03-27T21:38:23.646Z,71.00
2018-03-27T21:40:51.975Z,68.43
2018-03-27T21:43:20.319Z,68.40
2018-03-27T21:45:48.651Z,62.10
2018-03-27T21:48:16.994Z,63.27
2018-03-27T21:50:45.324Z,60.23
2018-03-27T21:53:13.667Z,62.50
2018-03-27T21:55:41.991Z,62.07
2018-03-27T21:58:10.341Z,60.17
2018-03-27T22:00:38.660Z,60.83
2018-03-27T22:03:07.002Z,54.60
2018-03-27T22:05:35.329Z,56.43
2018-03-27T22:08:03.729Z,59.27
2018-03-27T22:10:32.034Z,56.93
2018-03-27T22:13:00.388Z,68.97
2018-03-27T22:15:28.713Z,62.38
2018-03-27T22:17:57.053Z,63.83
2018-03-27T22:20:25.794Z,65.37
2018-03-27T22:22:54.138Z,60.20
2018-03-27T22:25:22.468Z,62.73
2018-03-27T22:27:50.818Z,64.37
2018-03-27T22:30:19.142Z,61.43
2018-03-27T22:32:47.483Z,58.95
2018-03-27T22:35:15.802Z,63.63
2018-03-27T22:37:44.160Z,45.93
2018-03-27T22:40:12.618Z,61.03
2018-03-27T22:42:40.962Z,66.67
2018-03-27T22:45:09.286Z,63.83
2018-03-27T22:47:37.634Z,70.90
2018-03-27T22:50:05.953Z,65.87
2018-03-27T22:52:34.318Z,64.13
2018-03-27T22:55:02.644Z,63.87
2018-03-27T22:57:30.962Z,71.83
2018-03-27T22:59:59.309Z,66.70
2018-03-27T23:02:27.625Z,72.00
2018-03-27T23:04:55.969Z,62.97
2018-03-27T23:07:24.299Z,69.05
2018-03-27T23:09:52.643Z,63.53
2018-03-27T23:12:20.982Z,72.43
2018-03-27T23:14:49.318Z,62.00
2018-03-27T23:17:17.786Z,74.67
2018-03-27T23:19:46.161Z,71.70
2018-03-27T23:22:26.368Z,77.50
2018-03-27T23:24:54.710Z,67.27
2018-03-27T23:27:23.033Z,73.93
2018-03-27T23:29:51.386Z,67.53
2018-03-27T23:32:19.710Z,71.50
2018-03-27T23:34:48.053Z,72.55
2018-03-27T23:37:16.374Z,69.72
2018-03-27T23:39:44.728Z,74.05
2018-03-27T23:42:13.042Z,68.78
2018-03-27T23:44:41.602Z,71.33
2018-03-27T23:47:09.934Z,70.17
2018-03-27T23:49:38.286Z,67.50
2018-03-27T23:52:06.636Z,75.77
2018-03-27T23:54:34.950Z,65.57
2018-03-27T23:57:03.270Z,66.72
2018-03-27T23:59:31.614Z,77.83
